sensor_id;sensor_type;location;lat;lon;timestamp;temperature;humidity
48515;DHT22;34309;47.260;2.796;2022-07-19T00:01:29;28.50;26.80
48515;DHT22;34309;47.260;2.796;2022-07-19T00:03:58;28.50;26.70
48515;DHT22;34309;47.260;2.796;2022-07-19T00:06:24;28.50;26.80
48515;DHT22;34309;47.260;2.796;2022-07-19T00:08:51;28.50;26.80
48515;DHT22;34309;47.260;2.796;2022-07-19T00:11:16;28.50;26.70
48515;DHT22;34309;47.260;2.796;2022-07-19T00:13:42;28.50;26.80
48515;DHT22;34309;47.260;2.796;2022-07-19T00:16:08;28.50;26.80
48515;DHT22;34309;47.260;2.796;2022-07-19T00:18:34;28.40;26.70
48515;DHT22;34309;47.260;2.796;2022-07-19T00:20:59;28.50;26.60
48515;DHT22;34309;47.260;2.796;2022-07-19T00:23:25;28.50;26.70
48515;DHT22;34309;47.260;2.796;2022-07-19T00:25:51;28.40;26.80
48515;DHT22;34309;47.260;2.796;2022-07-19T00:28:17;28.50;26.80
48515;DHT22;34309;47.260;2.796;2022-07-19T00:30:42;28.50;26.80
48515;DHT22;34309;47.260;2.796;2022-07-19T00:33:08;28.50;26.90
48515;DHT22;34309;47.260;2.796;2022-07-19T00:35:37;28.50;26.70
48515;DHT22;34309;47.260;2.796;2022-07-19T00:38:08;28.50;26.80
48515;DHT22;34309;47.260;2.796;2022-07-19T00:40:35;28.50;26.60
48515;DHT22;34309;47.260;2.796;2022-07-19T00:43:00;28.50;26.80
48515;DHT22;34309;47.260;2.796;2022-07-19T00:45:26;28.50;26.70
48515;DHT22;34309;47.260;2.796;2022-07-19T00:47:53;28.50;26.80
48515;DHT22;34309;47.260;2.796;2022-07-19T00:50:19;28.40;26.70
48515;DHT22;34309;47.260;2.796;2022-07-19T00:52:51;28.40;26.60
48515;DHT22;34309;47.260;2.796;2022-07-19T00:55:21;28.40;26.80
48515;DHT22;34309;47.260;2.796;2022-07-19T00:57:48;28.40;26.80
48515;DHT22;34309;47.260;2.796;2022-07-19T01:00:15;28.40;26.60
48515;DHT22;34309;47.260;2.796;2022-07-19T01:02:42;28.40;26.80
48515;DHT22;34309;47.260;2.796;2022-07-19T01:05:09;28.40;26.70
48515;DHT22;34309;47.260;2.796;2022-07-19T01:07:35;28.40;26.60
48515;DHT22;34309;47.260;2.796;2022-07-19T01:10:04;28.40;26.70
48515;DHT22;34309;47.260;2.796;2022-07-19T01:12:30;28.40;26.80
48515;DHT22;34309;47.260;2.796;2022-07-19T01:14:58;28.40;26.70
48515;DHT22;34309;47.260;2.796;2022-07-19T01:17:24;28.40;26.80
48515;DHT22;34309;47.260;2.796;2022-07-19T01:19:50;28.40;26.80
48515;DHT22;34309;47.260;2.796;2022-07-19T01:22:16;28.40;26.70
48515;DHT22;34309;47.260;2.796;2022-07-19T01:24:42;28.40;26.50
48515;DHT22;34309;47.260;2.796;2022-07-19T01:27:07;28.40;26.60
48515;DHT22;34309;47.260;2.796;2022-07-19T01:29:35;28.40;26.70
48515;DHT22;34309;47.260;2.796;2022-07-19T01:32:05;28.30;27.10
48515;DHT22;34309;47.260;2.796;2022-07-19T01:34:31;28.40;26.60
48515;DHT22;34309;47.260;2.796;2022-07-19T01:36:57;28.40;26.60
48515;DHT22;34309;47.260;2.796;2022-07-19T01:39:23;28.40;26.70
48515;DHT22;34309;47.260;2.796;2022-07-19T01:41:48;28.40;26.50
48515;DHT22;34309;47.260;2.796;2022-07-19T01:44:14;28.40;26.50
48515;DHT22;34309;47.260;2.796;2022-07-19T01:46:40;28.40;26.60
48515;DHT22;34309;47.260;2.796;2022-07-19T01:49:06;28.40;26.50
48515;DHT22;34309;47.260;2.796;2022-07-19T01:51:32;28.40;26.60
48515;DHT22;34309;47.260;2.796;2022-07-19T01:53:58;28.40;26.60
48515;DHT22;34309;47.260;2.796;2022-07-19T01:56:23;28.40;26.60
48515;DHT22;34309;47.260;2.796;2022-07-19T01:58:49;28.40;26.60
48515;DHT22;34309;47.260;2.796;2022-07-19T02:01:15;28.30;26.50
48515;DHT22;34309;47.260;2.796;2022-07-19T02:03:41;28.30;26.60
48515;DHT22;34309;47.260;2.796;2022-07-19T02:06:07;28.30;26.60
48515;DHT22;34309;47.260;2.796;2022-07-19T02:08:32;28.30;26.50
48515;DHT22;34309;47.260;2.796;2022-07-19T02:10:58;28.30;26.50
48515;DHT22;34309;47.260;2.796;2022-07-19T02:13:47;28.30;26.60
48515;DHT22;34309;47.260;2.796;2022-07-19T02:16:13;28.30;26.50
48515;DHT22;34309;47.260;2.796;2022-07-19T02:18:38;28.30;26.50
48515;DHT22;34309;47.260;2.796;2022-07-19T02:21:04;28.30;26.40
48515;DHT22;34309;47.260;2.796;2022-07-19T02:23:30;28.30;26.50
48515;DHT22;34309;47.260;2.796;2022-07-19T02:25:56;28.30;26.40
48515;DHT22;34309;47.260;2.796;2022-07-19T02:28:21;28.30;26.40
48515;DHT22;34309;47.260;2.796;2022-07-19T02:30:47;28.30;26.50
48515;DHT22;34309;47.260;2.796;2022-07-19T02:33:13;28.30;26.60
48515;DHT22;34309;47.260;2.796;2022-07-19T02:35:38;28.30;26.40
48515;DHT22;34309;47.260;2.796;2022-07-19T02:38:04;28.30;26.40
48515;DHT22;34309;47.260;2.796;2022-07-19T02:40:30;28.30;26.40
48515;DHT22;34309;47.260;2.796;2022-07-19T02:42:56;28.30;26.50
48515;DHT22;34309;47.260;2.796;2022-07-19T02:45:22;28.30;26.40
48515;DHT22;34309;47.260;2.796;2022-07-19T02:47:47;28.30;26.40
48515;DHT22;34309;47.260;2.796;2022-07-19T02:50:13;28.20;26.50
48515;DHT22;34309;47.260;2.796;2022-07-19T02:52:39;28.30;26.40
48515;DHT22;34309;47.260;2.796;2022-07-19T02:55:05;28.20;26.40
48515;DHT22;34309;47.260;2.796;2022-07-19T02:57:31;28.30;26.40
48515;DHT22;34309;47.260;2.796;2022-07-19T02:59:56;28.30;26.60
48515;DHT22;34309;47.260;2.796;2022-07-19T03:02:22;28.30;26.60
48515;DHT22;34309;47.260;2.796;2022-07-19T03:04:48;28.20;26.40
48515;DHT22;34309;47.260;2.796;2022-07-19T03:07:14;28.20;26.30
48515;DHT22;34309;47.260;2.796;2022-07-19T03:09:40;28.20;26.40
48515;DHT22;34309;47.260;2.796;2022-07-19T03:12:06;28.20;26.50
48515;DHT22;34309;47.260;2.796;2022-07-19T03:14:32;28.20;26.40
48515;DHT22;34309;47.260;2.796;2022-07-19T03:16:58;28.20;26.30
48515;DHT22;34309;47.260;2.796;2022-07-19T03:19:23;28.20;26.60
48515;DHT22;34309;47.260;2.796;2022-07-19T03:21:52;28.20;26.50
48515;DHT22;34309;47.260;2.796;2022-07-19T03:24:18;28.20;26.50
48515;DHT22;34309;47.260;2.796;2022-07-19T03:26:44;28.20;26.40
48515;DHT22;34309;47.260;2.796;2022-07-19T03:29:09;28.20;26.50
48515;DHT22;34309;47.260;2.796;2022-07-19T03:31:35;28.20;26.60
48515;DHT22;34309;47.260;2.796;2022-07-19T03:34:01;28.20;26.50
48515;DHT22;34309;47.260;2.796;2022-07-19T03:36:27;28.20;26.50
48515;DHT22;34309;47.260;2.796;2022-07-19T03:38:53;28.20;26.50
48515;DHT22;34309;47.260;2.796;2022-07-19T03:41:19;28.20;26.60
48515;DHT22;34309;47.260;2.796;2022-07-19T03:43:45;28.20;26.30
48515;DHT22;34309;47.260;2.796;2022-07-19T03:46:10;28.20;26.40
48515;DHT22;34309;47.260;2.796;2022-07-19T03:48:36;28.20;26.50
48515;DHT22;34309;47.260;2.796;2022-07-19T03:51:02;28.10;26.40
48515;DHT22;34309;47.260;2.796;2022-07-19T03:53:28;28.10;26.50
48515;DHT22;34309;47.260;2.796;2022-07-19T03:55:53;28.20;26.40
48515;DHT22;34309;47.260;2.796;2022-07-19T03:58:19;28.10;26.40
48515;DHT22;34309;47.260;2.796;2022-07-19T04:00:45;28.10;26.50
48515;DHT22;34309;47.260;2.796;2022-07-19T04:03:11;28.10;26.30
48515;DHT22;34309;47.260;2.796;2022-07-19T04:05:37;28.10;26.60
48515;DHT22;34309;47.260;2.796;2022-07-19T04:08:03;28.10;26.40
48515;DHT22;34309;47.260;2.796;2022-07-19T04:10:29;28.10;26.40
48515;DHT22;34309;47.260;2.796;2022-07-19T04:12:54;28.10;26.40
48515;DHT22;34309;47.260;2.796;2022-07-19T04:15:20;28.10;26.30
48515;DHT22;34309;47.260;2.796;2022-07-19T04:17:46;28.10;26.40
48515;DHT22;34309;47.260;2.796;2022-07-19T04:20:12;28.10;26.40
48515;DHT22;34309;47.260;2.796;2022-07-19T04:22:38;28.10;26.50
48515;DHT22;34309;47.260;2.796;2022-07-19T04:25:04;28.10;26.40
48515;DHT22;34309;47.260;2.796;2022-07-19T04:27:30;28.10;26.40
48515;DHT22;34309;47.260;2.796;2022-07-19T04:29:56;28.10;26.30
48515;DHT22;34309;47.260;2.796;2022-07-19T04:32:22;28.10;26.40
48515;DHT22;34309;47.260;2.796;2022-07-19T04:34:48;28.00;26.30
48515;DHT22;34309;47.260;2.796;2022-07-19T04:37:15;28.10;26.30
48515;DHT22;34309;47.260;2.796;2022-07-19T04:39:41;28.10;26.30
48515;DHT22;34309;47.260;2.796;2022-07-19T04:42:07;28.10;26.30
48515;DHT22;34309;47.260;2.796;2022-07-19T04:44:32;28.10;26.40
48515;DHT22;34309;47.260;2.796;2022-07-19T04:46:58;28.10;26.50
48515;DHT22;34309;47.260;2.796;2022-07-19T04:49:24;28.00;26.30
48515;DHT22;34309;47.260;2.796;2022-07-19T04:51:50;28.00;26.40
48515;DHT22;34309;47.260;2.796;2022-07-19T04:54:15;28.00;26.30
48515;DHT22;34309;47.260;2.796;2022-07-19T04:56:41;28.00;26.20
48515;DHT22;34309;47.260;2.796;2022-07-19T04:59:07;28.00;26.80
48515;DHT22;34309;47.260;2.796;2022-07-19T05:01:33;28.00;26.20
48515;DHT22;34309;47.260;2.796;2022-07-19T05:03:59;28.00;26.20
48515;DHT22;34309;47.260;2.796;2022-07-19T05:06:25;28.00;26.40
48515;DHT22;34309;47.260;2.796;2022-07-19T05:08:53;28.00;26.40
48515;DHT22;34309;47.260;2.796;2022-07-19T05:11:19;28.00;26.20
48515;DHT22;34309;47.260;2.796;2022-07-19T05:13:45;28.00;26.20
48515;DHT22;34309;47.260;2.796;2022-07-19T05:16:11;28.00;26.20
48515;DHT22;34309;47.260;2.796;2022-07-19T05:18:37;28.00;26.10
48515;DHT22;34309;47.260;2.796;2022-07-19T05:21:02;28.00;26.20
48515;DHT22;34309;47.260;2.796;2022-07-19T05:23:28;28.00;26.20
48515;DHT22;34309;47.260;2.796;2022-07-19T05:25:54;28.00;26.40
48515;DHT22;34309;47.260;2.796;2022-07-19T05:28:19;28.00;26.30
48515;DHT22;34309;47.260;2.796;2022-07-19T05:30:45;28.00;26.30
48515;DHT22;34309;47.260;2.796;2022-07-19T05:33:11;28.00;26.30
48515;DHT22;34309;47.260;2.796;2022-07-19T05:35:37;28.00;26.30
48515;DHT22;34309;47.260;2.796;2022-07-19T05:38:03;27.90;26.40
48515;DHT22;34309;47.260;2.796;2022-07-19T05:40:29;28.00;26.40
48515;DHT22;34309;47.260;2.796;2022-07-19T05:42:55;28.00;26.30
48515;DHT22;34309;47.260;2.796;2022-07-19T05:45:21;28.00;26.40
48515;DHT22;34309;47.260;2.796;2022-07-19T05:47:46;27.90;26.40
48515;DHT22;34309;47.260;2.796;2022-07-19T05:50:12;28.00;26.40
48515;DHT22;34309;47.260;2.796;2022-07-19T05:52:38;27.90;26.40
48515;DHT22;34309;47.260;2.796;2022-07-19T05:55:05;28.00;26.40
48515;DHT22;34309;47.260;2.796;2022-07-19T05:57:31;27.90;26.20
48515;DHT22;34309;47.260;2.796;2022-07-19T05:59:57;27.90;26.50
48515;DHT22;34309;47.260;2.796;2022-07-19T06:02:23;27.90;26.20
48515;DHT22;34309;47.260;2.796;2022-07-19T06:04:49;27.90;26.40
48515;DHT22;34309;47.260;2.796;2022-07-19T06:07:15;27.90;26.40
48515;DHT22;34309;47.260;2.796;2022-07-19T06:09:41;27.90;26.30
48515;DHT22;34309;47.260;2.796;2022-07-19T06:12:06;27.90;26.30
48515;DHT22;34309;47.260;2.796;2022-07-19T06:14:32;27.90;26.40
48515;DHT22;34309;47.260;2.796;2022-07-19T06:16:58;27.90;26.30
48515;DHT22;34309;47.260;2.796;2022-07-19T06:19:25;27.90;26.40
48515;DHT22;34309;47.260;2.796;2022-07-19T06:21:52;27.90;26.30
48515;DHT22;34309;47.260;2.796;2022-07-19T06:24:18;27.90;26.50
48515;DHT22;34309;47.260;2.796;2022-07-19T06:26:44;27.90;26.40
48515;DHT22;34309;47.260;2.796;2022-07-19T06:29:10;27.90;26.40
48515;DHT22;34309;47.260;2.796;2022-07-19T06:31:36;27.90;26.60
48515;DHT22;34309;47.260;2.796;2022-07-19T06:34:01;27.90;26.50
48515;DHT22;34309;47.260;2.796;2022-07-19T06:36:27;27.90;26.50
48515;DHT22;34309;47.260;2.796;2022-07-19T06:38:53;27.90;26.40
48515;DHT22;34309;47.260;2.796;2022-07-19T06:41:19;27.90;26.50
48515;DHT22;34309;47.260;2.796;2022-07-19T06:43:45;27.90;26.50
48515;DHT22;34309;47.260;2.796;2022-07-19T06:46:11;27.90;26.40
48515;DHT22;34309;47.260;2.796;2022-07-19T06:48:37;27.90;26.40
48515;DHT22;34309;47.260;2.796;2022-07-19T06:51:05;27.90;26.50
48515;DHT22;34309;47.260;2.796;2022-07-19T06:53:31;27.90;26.50
48515;DHT22;34309;47.260;2.796;2022-07-19T06:55:57;27.90;26.40
48515;DHT22;34309;47.260;2.796;2022-07-19T06:58:23;27.90;26.40
48515;DHT22;34309;47.260;2.796;2022-07-19T07:00:48;27.90;26.60
48515;DHT22;34309;47.260;2.796;2022-07-19T07:03:15;27.90;26.60
48515;DHT22;34309;47.260;2.796;2022-07-19T07:05:43;27.90;26.40
48515;DHT22;34309;47.260;2.796;2022-07-19T07:08:08;27.90;26.50
48515;DHT22;34309;47.260;2.796;2022-07-19T07:10:34;27.90;26.60
48515;DHT22;34309;47.260;2.796;2022-07-19T07:13:00;27.90;26.60
48515;DHT22;34309;47.260;2.796;2022-07-19T07:15:25;27.90;26.80
48515;DHT22;34309;47.260;2.796;2022-07-19T07:17:51;27.90;26.60
48515;DHT22;34309;47.260;2.796;2022-07-19T07:20:17;27.90;26.80
48515;DHT22;34309;47.260;2.796;2022-07-19T07:22:42;27.90;26.80
48515;DHT22;34309;47.260;2.796;2022-07-19T07:25:08;27.90;26.70
48515;DHT22;34309;47.260;2.796;2022-07-19T07:27:35;27.90;26.60
48515;DHT22;34309;47.260;2.796;2022-07-19T07:30:00;27.90;26.60
48515;DHT22;34309;47.260;2.796;2022-07-19T07:32:26;27.90;26.60
48515;DHT22;34309;47.260;2.796;2022-07-19T07:34:53;27.90;26.70
48515;DHT22;34309;47.260;2.796;2022-07-19T07:37:19;27.90;26.70
48515;DHT22;34309;47.260;2.796;2022-07-19T07:39:45;27.90;26.70
48515;DHT22;34309;47.260;2.796;2022-07-19T07:42:10;27.90;26.70
48515;DHT22;34309;47.260;2.796;2022-07-19T07:44:36;27.90;26.80
48515;DHT22;34309;47.260;2.796;2022-07-19T07:47:02;27.90;26.70
48515;DHT22;34309;47.260;2.796;2022-07-19T07:49:28;27.90;26.60
48515;DHT22;34309;47.260;2.796;2022-07-19T07:51:55;27.90;26.70
48515;DHT22;34309;47.260;2.796;2022-07-19T07:54:21;27.90;26.70
48515;DHT22;34309;47.260;2.796;2022-07-19T07:56:47;27.90;26.70
48515;DHT22;34309;47.260;2.796;2022-07-19T07:59:12;27.90;26.70
48515;DHT22;34309;47.260;2.796;2022-07-19T08:01:38;27.90;26.60
48515;DHT22;34309;47.260;2.796;2022-07-19T08:04:05;27.90;26.70
48515;DHT22;34309;47.260;2.796;2022-07-19T08:06:31;27.90;26.80
48515;DHT22;34309;47.260;2.796;2022-07-19T08:08:56;27.90;26.80
48515;DHT22;34309;47.260;2.796;2022-07-19T08:11:22;27.90;26.70
48515;DHT22;34309;47.260;2.796;2022-07-19T08:13:48;27.90;26.90
48515;DHT22;34309;47.260;2.796;2022-07-19T08:16:14;27.90;26.70
48515;DHT22;34309;47.260;2.796;2022-07-19T08:18:42;27.90;26.80
48515;DHT22;34309;47.260;2.796;2022-07-19T08:21:08;27.90;26.60
48515;DHT22;34309;47.260;2.796;2022-07-19T08:23:33;27.90;26.80
48515;DHT22;34309;47.260;2.796;2022-07-19T08:25:59;27.90;26.70
48515;DHT22;34309;47.260;2.796;2022-07-19T08:28:25;27.90;26.70
48515;DHT22;34309;47.260;2.796;2022-07-19T08:30:50;27.90;26.70
48515;DHT22;34309;47.260;2.796;2022-07-19T08:33:16;27.90;26.70
48515;DHT22;34309;47.260;2.796;2022-07-19T08:35:42;27.90;26.80
48515;DHT22;34309;47.260;2.796;2022-07-19T08:38:08;27.90;26.80
48515;DHT22;34309;47.260;2.796;2022-07-19T08:40:34;27.90;26.90
48515;DHT22;34309;47.260;2.796;2022-07-19T08:43:03;28.00;26.80
48515;DHT22;34309;47.260;2.796;2022-07-19T08:45:30;27.90;26.80
48515;DHT22;34309;47.260;2.796;2022-07-19T08:47:57;27.90;26.90
48515;DHT22;34309;47.260;2.796;2022-07-19T08:50:25;28.00;26.90
48515;DHT22;34309;47.260;2.796;2022-07-19T08:52:52;28.00;26.80
48515;DHT22;34309;47.260;2.796;2022-07-19T08:55:17;28.00;27.00
48515;DHT22;34309;47.260;2.796;2022-07-19T08:57:43;27.90;26.80
48515;DHT22;34309;47.260;2.796;2022-07-19T09:00:32;28.00;27.00
48515;DHT22;34309;47.260;2.796;2022-07-19T09:03:05;28.00;27.00
48515;DHT22;34309;47.260;2.796;2022-07-19T09:05:32;28.00;26.90
48515;DHT22;34309;47.260;2.796;2022-07-19T09:08:11;28.00;27.00
48515;DHT22;34309;47.260;2.796;2022-07-19T09:10:40;28.00;27.00
48515;DHT22;34309;47.260;2.796;2022-07-19T09:15:53;28.00;27.10
48515;DHT22;34309;47.260;2.796;2022-07-19T09:18:30;28.00;27.00
48515;DHT22;34309;47.260;2.796;2022-07-19T09:20:58;28.00;27.10
48515;DHT22;34309;47.260;2.796;2022-07-19T09:23:24;28.00;27.00
48515;DHT22;34309;47.260;2.796;2022-07-19T09:25:53;28.00;27.20
48515;DHT22;34309;47.260;2.796;2022-07-19T09:28:21;28.00;27.10
48515;DHT22;34309;47.260;2.796;2022-07-19T09:30:52;28.00;27.20
48515;DHT22;34309;47.260;2.796;2022-07-19T09:35:56;28.00;27.10
48515;DHT22;34309;47.260;2.796;2022-07-19T09:38:34;28.00;27.10
48515;DHT22;34309;47.260;2.796;2022-07-19T09:41:10;28.00;27.10
48515;DHT22;34309;47.260;2.796;2022-07-19T09:44:02;28.00;27.00
48515;DHT22;34309;47.260;2.796;2022-07-19T09:46:36;28.00;27.20
48515;DHT22;34309;47.260;2.796;2022-07-19T09:49:13;28.00;27.20
48515;DHT22;34309;47.260;2.796;2022-07-19T09:54:11;28.00;27.00
48515;DHT22;34309;47.260;2.796;2022-07-19T09:56:38;28.00;27.20
48515;DHT22;34309;47.260;2.796;2022-07-19T09:59:05;28.10;27.30
48515;DHT22;34309;47.260;2.796;2022-07-19T10:01:31;28.00;27.00
48515;DHT22;34309;47.260;2.796;2022-07-19T10:04:02;28.00;27.30
48515;DHT22;34309;47.260;2.796;2022-07-19T10:06:28;28.00;27.20
48515;DHT22;34309;47.260;2.796;2022-07-19T10:08:54;28.10;27.30
48515;DHT22;34309;47.260;2.796;2022-07-19T10:11:21;28.00;27.10
48515;DHT22;34309;47.260;2.796;2022-07-19T10:13:49;28.10;27.10
48515;DHT22;34309;47.260;2.796;2022-07-19T10:16:20;28.10;27.10
48515;DHT22;34309;47.260;2.796;2022-07-19T10:19:10;28.10;27.20
48515;DHT22;34309;47.260;2.796;2022-07-19T10:21:38;28.10;27.00
48515;DHT22;34309;47.260;2.796;2022-07-19T10:24:04;28.10;27.10
48515;DHT22;34309;47.260;2.796;2022-07-19T10:26:55;28.10;27.00
48515;DHT22;34309;47.260;2.796;2022-07-19T10:29:23;28.10;27.20
48515;DHT22;34309;47.260;2.796;2022-07-19T10:32:06;28.10;27.00
48515;DHT22;34309;47.260;2.796;2022-07-19T10:34:33;28.10;27.20
48515;DHT22;34309;47.260;2.796;2022-07-19T10:36:58;28.10;27.20
48515;DHT22;34309;47.260;2.796;2022-07-19T10:39:26;28.10;27.00
48515;DHT22;34309;47.260;2.796;2022-07-19T10:42:21;28.10;27.10
48515;DHT22;34309;47.260;2.796;2022-07-19T10:50:08;28.10;27.20
48515;DHT22;34309;47.260;2.796;2022-07-19T10:52:35;28.10;27.20
48515;DHT22;34309;47.260;2.796;2022-07-19T10:57:45;28.20;27.20
48515;DHT22;34309;47.260;2.796;2022-07-19T11:00:21;28.20;27.10
48515;DHT22;34309;47.260;2.796;2022-07-19T11:02:48;28.20;27.20
48515;DHT22;34309;47.260;2.796;2022-07-19T11:07:51;28.20;27.40
48515;DHT22;34309;47.260;2.796;2022-07-19T11:10:25;28.20;27.10
48515;DHT22;34309;47.260;2.796;2022-07-19T11:12:52;28.10;27.10
48515;DHT22;34309;47.260;2.796;2022-07-19T11:15:18;28.20;27.10
48515;DHT22;34309;47.260;2.796;2022-07-19T11:20:17;28.20;27.20
48515;DHT22;34309;47.260;2.796;2022-07-19T11:22:46;28.20;27.30
48515;DHT22;34309;47.260;2.796;2022-07-19T11:25:13;28.20;27.50
48515;DHT22;34309;47.260;2.796;2022-07-19T11:27:44;28.20;27.50
48515;DHT22;34309;47.260;2.796;2022-07-19T11:30:12;28.20;27.20
48515;DHT22;34309;47.260;2.796;2022-07-19T11:32:38;28.20;27.20
48515;DHT22;34309;47.260;2.796;2022-07-19T11:35:09;28.20;27.20
48515;DHT22;34309;47.260;2.796;2022-07-19T11:37:38;28.20;27.10
48515;DHT22;34309;47.260;2.796;2022-07-19T11:40:06;28.20;27.30
48515;DHT22;34309;47.260;2.796;2022-07-19T11:42:43;28.30;27.40
48515;DHT22;34309;47.260;2.796;2022-07-19T11:45:17;28.30;27.30
48515;DHT22;34309;47.260;2.796;2022-07-19T11:47:49;28.30;27.50
48515;DHT22;34309;47.260;2.796;2022-07-19T11:50:20;28.30;27.50
48515;DHT22;34309;47.260;2.796;2022-07-19T11:52:50;28.30;27.30
48515;DHT22;34309;47.260;2.796;2022-07-19T11:55:18;28.30;27.40
48515;DHT22;34309;47.260;2.796;2022-07-19T11:57:44;28.30;27.40
48515;DHT22;34309;47.260;2.796;2022-07-19T12:00:11;28.30;27.50
48515;DHT22;34309;47.260;2.796;2022-07-19T12:02:57;28.30;27.20
48515;DHT22;34309;47.260;2.796;2022-07-19T12:05:27;28.30;27.40
48515;DHT22;34309;47.260;2.796;2022-07-19T12:07:57;28.30;27.30
48515;DHT22;34309;47.260;2.796;2022-07-19T12:10:43;28.30;27.40
48515;DHT22;34309;47.260;2.796;2022-07-19T12:13:14;28.30;27.30
48515;DHT22;34309;47.260;2.796;2022-07-19T12:15:58;28.30;27.40
48515;DHT22;34309;47.260;2.796;2022-07-19T12:23:42;28.40;27.40
48515;DHT22;34309;47.260;2.796;2022-07-19T12:26:08;28.40;27.40
48515;DHT22;34309;47.260;2.796;2022-07-19T12:28:34;28.40;27.40
48515;DHT22;34309;47.260;2.796;2022-07-19T12:31:02;28.40;27.30
48515;DHT22;34309;47.260;2.796;2022-07-19T12:33:28;28.40;27.40
48515;DHT22;34309;47.260;2.796;2022-07-19T12:35:54;28.40;27.50
48515;DHT22;34309;47.260;2.796;2022-07-19T12:38:27;28.40;27.30
48515;DHT22;34309;47.260;2.796;2022-07-19T12:41:07;28.40;27.40
48515;DHT22;34309;47.260;2.796;2022-07-19T12:43:34;28.40;27.40
48515;DHT22;34309;47.260;2.796;2022-07-19T12:46:01;28.40;27.50
48515;DHT22;34309;47.260;2.796;2022-07-19T12:48:27;28.40;27.50
48515;DHT22;34309;47.260;2.796;2022-07-19T12:50:53;28.40;27.50
48515;DHT22;34309;47.260;2.796;2022-07-19T12:53:20;28.40;27.40
48515;DHT22;34309;47.260;2.796;2022-07-19T12:55:47;28.40;27.50
48515;DHT22;34309;47.260;2.796;2022-07-19T12:58:15;28.50;27.40
48515;DHT22;34309;47.260;2.796;2022-07-19T13:01:04;28.50;27.40
48515;DHT22;34309;47.260;2.796;2022-07-19T13:03:31;28.50;27.50
48515;DHT22;34309;47.260;2.796;2022-07-19T13:05:57;28.50;27.50
48515;DHT22;34309;47.260;2.796;2022-07-19T13:08:25;28.50;27.40
48515;DHT22;34309;47.260;2.796;2022-07-19T13:10:54;28.50;27.50
48515;DHT22;34309;47.260;2.796;2022-07-19T13:13:20;28.50;27.40
48515;DHT22;34309;47.260;2.796;2022-07-19T13:15:45;28.50;27.40
48515;DHT22;34309;47.260;2.796;2022-07-19T13:18:11;28.50;27.50
48515;DHT22;34309;47.260;2.796;2022-07-19T13:20:38;28.50;27.60
48515;DHT22;34309;47.260;2.796;2022-07-19T13:23:03;28.50;27.50
48515;DHT22;34309;47.260;2.796;2022-07-19T13:25:29;28.50;27.50
48515;DHT22;34309;47.260;2.796;2022-07-19T13:27:55;28.50;27.50
48515;DHT22;34309;47.260;2.796;2022-07-19T13:30:20;28.50;27.40
48515;DHT22;34309;47.260;2.796;2022-07-19T13:32:46;28.50;27.50
48515;DHT22;34309;47.260;2.796;2022-07-19T13:35:13;28.50;27.40
48515;DHT22;34309;47.260;2.796;2022-07-19T13:37:39;28.60;27.50
48515;DHT22;34309;47.260;2.796;2022-07-19T13:40:05;28.60;27.40
48515;DHT22;34309;47.260;2.796;2022-07-19T13:42:31;28.60;27.40
48515;DHT22;34309;47.260;2.796;2022-07-19T13:44:57;28.60;27.50
48515;DHT22;34309;47.260;2.796;2022-07-19T13:47:22;28.60;27.40
48515;DHT22;34309;47.260;2.796;2022-07-19T13:49:48;28.60;27.30
48515;DHT22;34309;47.260;2.796;2022-07-19T13:52:14;28.60;27.80
48515;DHT22;34309;47.260;2.796;2022-07-19T13:54:39;28.60;27.50
48515;DHT22;34309;47.260;2.796;2022-07-19T13:57:05;28.60;28.00
48515;DHT22;34309;47.260;2.796;2022-07-19T13:59:31;28.60;27.50
48515;DHT22;34309;47.260;2.796;2022-07-19T14:01:59;28.60;27.30
48515;DHT22;34309;47.260;2.796;2022-07-19T14:04:26;28.60;27.50
48515;DHT22;34309;47.260;2.796;2022-07-19T14:06:52;28.60;27.40
48515;DHT22;34309;47.260;2.796;2022-07-19T14:09:18;28.60;27.40
48515;DHT22;34309;47.260;2.796;2022-07-19T14:11:44;28.70;27.60
48515;DHT22;34309;47.260;2.796;2022-07-19T14:14:10;28.60;27.40
48515;DHT22;34309;47.260;2.796;2022-07-19T14:16:36;28.70;27.50
48515;DHT22;34309;47.260;2.796;2022-07-19T14:19:02;28.70;27.60
48515;DHT22;34309;47.260;2.796;2022-07-19T14:21:27;28.70;27.50
48515;DHT22;34309;47.260;2.796;2022-07-19T14:23:59;28.70;27.50
48515;DHT22;34309;47.260;2.796;2022-07-19T14:26:25;28.70;27.50
48515;DHT22;34309;47.260;2.796;2022-07-19T14:28:50;28.70;27.40
48515;DHT22;34309;47.260;2.796;2022-07-19T14:31:16;28.70;27.60
48515;DHT22;34309;47.260;2.796;2022-07-19T14:33:42;28.70;27.40
48515;DHT22;34309;47.260;2.796;2022-07-19T14:36:08;28.70;27.50
48515;DHT22;34309;47.260;2.796;2022-07-19T14:38:34;28.70;27.40
48515;DHT22;34309;47.260;2.796;2022-07-19T14:41:00;28.70;27.40
48515;DHT22;34309;47.260;2.796;2022-07-19T14:43:26;28.70;27.50
48515;DHT22;34309;47.260;2.796;2022-07-19T14:45:51;28.80;27.60
48515;DHT22;34309;47.260;2.796;2022-07-19T14:48:17;28.70;27.40
48515;DHT22;34309;47.260;2.796;2022-07-19T14:50:43;28.80;27.50
48515;DHT22;34309;47.260;2.796;2022-07-19T14:53:11;28.80;27.40
48515;DHT22;34309;47.260;2.796;2022-07-19T14:55:37;28.70;27.30
48515;DHT22;34309;47.260;2.796;2022-07-19T14:58:03;28.80;27.40
48515;DHT22;34309;47.260;2.796;2022-07-19T15:00:29;28.80;27.60
48515;DHT22;34309;47.260;2.796;2022-07-19T15:02:55;28.80;27.40
48515;DHT22;34309;47.260;2.796;2022-07-19T15:05:21;28.80;27.50
48515;DHT22;34309;47.260;2.796;2022-07-19T15:07:47;28.80;28.10
48515;DHT22;34309;47.260;2.796;2022-07-19T15:10:13;28.80;27.60
48515;DHT22;34309;47.260;2.796;2022-07-19T15:12:38;28.80;27.40
48515;DHT22;34309;47.260;2.796;2022-07-19T15:15:04;28.80;27.30
48515;DHT22;34309;47.260;2.796;2022-07-19T15:17:31;28.80;27.40
48515;DHT22;34309;47.260;2.796;2022-07-19T15:19:57;28.90;27.50
48515;DHT22;34309;47.260;2.796;2022-07-19T15:22:23;28.80;27.40
48515;DHT22;34309;47.260;2.796;2022-07-19T15:24:48;28.90;27.50
48515;DHT22;34309;47.260;2.796;2022-07-19T15:27:14;28.90;27.50
48515;DHT22;34309;47.260;2.796;2022-07-19T15:29:40;28.90;27.50
48515;DHT22;34309;47.260;2.796;2022-07-19T15:32:09;28.90;27.50
48515;DHT22;34309;47.260;2.796;2022-07-19T15:34:36;28.90;27.40
48515;DHT22;34309;47.260;2.796;2022-07-19T15:37:02;28.90;27.40
48515;DHT22;34309;47.260;2.796;2022-07-19T15:39:28;28.90;27.40
48515;DHT22;34309;47.260;2.796;2022-07-19T15:41:53;28.90;27.30
48515;DHT22;34309;47.260;2.796;2022-07-19T15:44:19;28.90;27.60
48515;DHT22;34309;47.260;2.796;2022-07-19T15:46:45;28.90;27.50
48515;DHT22;34309;47.260;2.796;2022-07-19T15:49:10;28.90;27.40
48515;DHT22;34309;47.260;2.796;2022-07-19T15:51:36;28.90;27.40
48515;DHT22;34309;47.260;2.796;2022-07-19T15:54:02;28.90;27.40
48515;DHT22;34309;47.260;2.796;2022-07-19T15:56:31;28.90;27.40